sensor_id;sensor_type;location;lat;lon;timestamp;P1;durP1;ratioP1;P2;durP2;ratioP2
26335;SDS011;14047;50.936;4.654;2023-05-10T00:00:36;19.77;;;10.07;;
26335;SDS011;14047;50.936;4.654;2023-05-10T00:03:02;19.65;;;10.38;;
26335;SDS011;14047;50.936;4.654;2023-05-10T00:05:30;20.00;;;9.95;;
26335;SDS011;14047;50.936;4.654;2023-05-10T00:07:56;19.98;;;9.18;;
26335;SDS011;14047;50.936;4.654;2023-05-10T00:10:22;22.20;;;9.75;;
26335;SDS011;14047;50.936;4.654;2023-05-10T00:12:48;13.02;;;9.20;;
26335;SDS011;14047;50.936;4.654;2023-05-10T00:15:14;16.05;;;9.05;;
26335;SDS011;14047;50.936;4.654;2023-05-10T00:17:40;19.38;;;8.73;;
26335;SDS011;14047;50.936;4.654;2023-05-10T00:20:06;21.13;;;8.75;;
26335;SDS011;14047;50.936;4.654;2023-05-10T00:22:32;16.52;;;8.15;;
26335;SDS011;14047;50.936;4.654;2023-05-10T00:24:58;21.65;;;8.63;;
26335;SDS011;14047;50.936;4.654;2023-05-10T00:27:25;20.15;;;8.98;;
26335;SDS011;14047;50.936;4.654;2023-05-10T00:29:52;17.55;;;8.98;;
26335;SDS011;14047;50.936;4.654;2023-05-10T00:32:19;19.50;;;8.27;;
26335;SDS011;14047;50.936;4.654;2023-05-10T00:34:45;21.73;;;9.13;;
26335;SDS011;14047;50.936;4.654;2023-05-10T00:37:11;17.25;;;8.85;;
26335;SDS011;14047;50.936;4.654;2023-05-10T00:39:37;20.42;;;8.75;;
26335;SDS011;14047;50.936;4.654;2023-05-10T00:42:04;27.45;;;9.60;;
26335;SDS011;14047;50.936;4.654;2023-05-10T00:44:30;18.83;;;8.88;;
26335;SDS011;14047;50.936;4.654;2023-05-10T00:46:56;24.02;;;10.57;;
26335;SDS011;14047;50.936;4.654;2023-05-10T00:49:23;21.77;;;10.48;;
26335;SDS011;14047;50.936;4.654;2023-05-10T00:51:52;26.20;;;10.80;;
26335;SDS011;14047;50.936;4.654;2023-05-10T00:54:19;26.02;;;10.95;;
26335;SDS011;14047;50.936;4.654;2023-05-10T00:56:45;22.13;;;10.70;;
26335;SDS011;14047;50.936;4.654;2023-05-10T00:59:17;20.13;;;10.10;;
26335;SDS011;14047;50.936;4.654;2023-05-10T01:01:45;26.17;;;10.98;;
26335;SDS011;14047;50.936;4.654;2023-05-10T01:04:12;32.50;;;11.18;;
26335;SDS011;14047;50.936;4.654;2023-05-10T01:06:41;23.90;;;10.57;;
26335;SDS011;14047;50.936;4.654;2023-05-10T01:09:08;25.65;;;11.52;;
26335;SDS011;14047;50.936;4.654;2023-05-10T01:11:36;22.23;;;10.70;;
26335;SDS011;14047;50.936;4.654;2023-05-10T01:14:04;24.15;;;10.23;;
26335;SDS011;14047;50.936;4.654;2023-05-10T01:16:33;24.05;;;10.98;;
26335;SDS011;14047;50.936;4.654;2023-05-10T01:19:03;26.17;;;10.00;;
26335;SDS011;14047;50.936;4.654;2023-05-10T01:21:47;25.73;;;12.07;;
26335;SDS011;14047;50.936;4.654;2023-05-10T01:24:40;27.35;;;10.77;;
26335;SDS011;14047;50.936;4.654;2023-05-10T01:35:47;21.95;;;10.18;;
26335;SDS011;14047;50.936;4.654;2023-05-10T01:43:22;32.17;;;12.27;;
26335;SDS011;14047;50.936;4.654;2023-05-10T01:46:04;24.35;;;12.18;;
26335;SDS011;14047;50.936;4.654;2023-05-10T01:48:42;23.38;;;11.52;;
26335;SDS011;14047;50.936;4.654;2023-05-10T01:51:17;27.20;;;12.25;;
26335;SDS011;14047;50.936;4.654;2023-05-10T01:53:48;21.73;;;10.98;;
26335;SDS011;14047;50.936;4.654;2023-05-10T01:56:16;25.00;;;11.32;;
26335;SDS011;14047;50.936;4.654;2023-05-10T01:58:49;23.40;;;12.20;;
26335;SDS011;14047;50.936;4.654;2023-05-10T02:01:17;28.95;;;11.65;;
26335;SDS011;14047;50.936;4.654;2023-05-10T02:03:47;24.00;;;12.98;;
26335;SDS011;14047;50.936;4.654;2023-05-10T02:06:16;25.88;;;13.38;;
26335;SDS011;14047;50.936;4.654;2023-05-10T02:08:44;32.60;;;13.65;;
26335;SDS011;14047;50.936;4.654;2023-05-10T02:11:13;27.95;;;13.98;;
26335;SDS011;14047;50.936;4.654;2023-05-10T02:13:39;28.13;;;14.85;;
26335;SDS011;14047;50.936;4.654;2023-05-10T02:16:09;30.05;;;15.07;;
26335;SDS011;14047;50.936;4.654;2023-05-10T02:18:35;28.48;;;14.38;;
26335;SDS011;14047;50.936;4.654;2023-05-10T02:21:02;28.77;;;15.40;;
26335;SDS011;14047;50.936;4.654;2023-05-10T02:23:29;26.48;;;14.93;;
26335;SDS011;14047;50.936;4.654;2023-05-10T02:25:56;30.35;;;15.75;;
26335;SDS011;14047;50.936;4.654;2023-05-10T02:28:23;38.95;;;15.98;;
26335;SDS011;14047;50.936;4.654;2023-05-10T02:30:51;33.95;;;15.30;;
26335;SDS011;14047;50.936;4.654;2023-05-10T02:33:18;35.40;;;16.65;;
26335;SDS011;14047;50.936;4.654;2023-05-10T02:35:47;28.98;;;15.98;;
26335;SDS011;14047;50.936;4.654;2023-05-10T02:38:14;32.40;;;15.70;;
26335;SDS011;14047;50.936;4.654;2023-05-10T02:40:41;33.20;;;16.88;;
26335;SDS011;14047;50.936;4.654;2023-05-10T02:43:09;30.60;;;15.77;;
26335;SDS011;14047;50.936;4.654;2023-05-10T02:45:39;35.40;;;16.08;;
26335;SDS011;14047;50.936;4.654;2023-05-10T02:48:08;29.65;;;15.90;;
26335;SDS011;14047;50.936;4.654;2023-05-10T02:50:34;35.95;;;15.90;;
26335;SDS011;14047;50.936;4.654;2023-05-10T02:53:03;28.55;;;15.20;;
26335;SDS011;14047;50.936;4.654;2023-05-10T02:55:36;36.60;;;18.02;;
26335;SDS011;14047;50.936;4.654;2023-05-10T02:58:05;31.02;;;14.75;;
26335;SDS011;14047;50.936;4.654;2023-05-10T03:00:32;34.72;;;15.73;;
26335;SDS011;14047;50.936;4.654;2023-05-10T03:02:58;27.17;;;13.88;;
26335;SDS011;14047;50.936;4.654;2023-05-10T03:05:25;26.98;;;14.48;;
26335;SDS011;14047;50.936;4.654;2023-05-10T03:07:51;30.95;;;14.32;;
26335;SDS011;14047;50.936;4.654;2023-05-10T03:10:18;27.00;;;13.27;;
26335;SDS011;14047;50.936;4.654;2023-05-10T03:18:48;25.55;;;13.82;;
26335;SDS011;14047;50.936;4.654;2023-05-10T03:21:22;26.40;;;13.68;;
26335;SDS011;14047;50.936;4.654;2023-05-10T03:23:58;28.27;;;13.63;;
26335;SDS011;14047;50.936;4.654;2023-05-10T03:26:30;28.92;;;13.52;;
26335;SDS011;14047;50.936;4.654;2023-05-10T03:29:08;26.95;;;13.25;;
26335;SDS011;14047;50.936;4.654;2023-05-10T03:31:37;27.00;;;13.73;;
26335;SDS011;14047;50.936;4.654;2023-05-10T03:34:04;27.83;;;13.73;;
26335;SDS011;14047;50.936;4.654;2023-05-10T03:36:31;30.65;;;14.48;;
26335;SDS011;14047;50.936;4.654;2023-05-10T03:38:57;27.95;;;13.38;;
26335;SDS011;14047;50.936;4.654;2023-05-10T03:41:23;26.13;;;14.23;;
26335;SDS011;14047;50.936;4.654;2023-05-10T03:43:50;23.00;;;14.10;;
26335;SDS011;14047;50.936;4.654;2023-05-10T03:46:17;27.98;;;13.63;;
26335;SDS011;14047;50.936;4.654;2023-05-10T03:48:44;32.63;;;14.52;;
26335;SDS011;14047;50.936;4.654;2023-05-10T03:51:10;28.23;;;13.02;;
26335;SDS011;14047;50.936;4.654;2023-05-10T03:53:36;28.40;;;14.85;;
26335;SDS011;14047;50.936;4.654;2023-05-10T03:56:02;28.02;;;14.48;;
26335;SDS011;14047;50.936;4.654;2023-05-10T03:58:30;29.00;;;15.35;;
26335;SDS011;14047;50.936;4.654;2023-05-10T04:00:57;27.38;;;14.13;;
26335;SDS011;14047;50.936;4.654;2023-05-10T04:03:23;30.60;;;14.68;;
26335;SDS011;14047;50.936;4.654;2023-05-10T04:05:58;26.52;;;14.55;;
26335;SDS011;14047;50.936;4.654;2023-05-10T04:08:28;31.20;;;15.23;;
26335;SDS011;14047;50.936;4.654;2023-05-10T04:11:08;27.65;;;15.00;;
26335;SDS011;14047;50.936;4.654;2023-05-10T04:13:35;28.88;;;15.35;;
26335;SDS011;14047;50.936;4.654;2023-05-10T04:16:02;33.55;;;16.17;;
26335;SDS011;14047;50.936;4.654;2023-05-10T04:18:28;33.20;;;16.63;;
26335;SDS011;14047;50.936;4.654;2023-05-10T04:20:54;42.83;;;18.67;;
26335;SDS011;14047;50.936;4.654;2023-05-10T04:23:20;35.97;;;18.15;;
26335;SDS011;14047;50.936;4.654;2023-05-10T04:25:45;39.67;;;18.90;;
26335;SDS011;14047;50.936;4.654;2023-05-10T04:28:11;35.17;;;18.25;;
26335;SDS011;14047;50.936;4.654;2023-05-10T04:30:38;50.42;;;21.63;;
26335;SDS011;14047;50.936;4.654;2023-05-10T04:33:05;40.28;;;20.02;;
26335;SDS011;14047;50.936;4.654;2023-05-10T04:35:31;43.50;;;19.75;;
26335;SDS011;14047;50.936;4.654;2023-05-10T04:37:57;48.47;;;20.98;;
26335;SDS011;14047;50.936;4.654;2023-05-10T04:40:23;42.75;;;20.42;;
26335;SDS011;14047;50.936;4.654;2023-05-10T04:42:49;46.97;;;20.67;;
26335;SDS011;14047;50.936;4.654;2023-05-10T04:45:15;46.83;;;20.58;;
26335;SDS011;14047;50.936;4.654;2023-05-10T04:47:41;49.60;;;23.33;;
26335;SDS011;14047;50.936;4.654;2023-05-10T04:50:07;46.70;;;21.35;;
26335;SDS011;14047;50.936;4.654;2023-05-10T04:52:33;47.63;;;22.15;;
26335;SDS011;14047;50.936;4.654;2023-05-10T04:54:59;55.92;;;24.73;;
26335;SDS011;14047;50.936;4.654;2023-05-10T04:57:25;63.55;;;23.83;;
26335;SDS011;14047;50.936;4.654;2023-05-10T04:59:51;61.97;;;25.40;;
26335;SDS011;14047;50.936;4.654;2023-05-10T05:02:18;63.67;;;25.20;;
26335;SDS011;14047;50.936;4.654;2023-05-10T05:04:44;64.97;;;25.98;;
26335;SDS011;14047;50.936;4.654;2023-05-10T05:07:10;61.53;;;24.98;;
26335;SDS011;14047;50.936;4.654;2023-05-10T05:09:35;59.45;;;25.05;;
26335;SDS011;14047;50.936;4.654;2023-05-10T05:12:01;60.85;;;23.58;;
26335;SDS011;14047;50.936;4.654;2023-05-10T05:14:27;56.05;;;25.08;;
26335;SDS011;14047;50.936;4.654;2023-05-10T05:16:53;64.68;;;25.13;;
26335;SDS011;14047;50.936;4.654;2023-05-10T05:19:19;56.92;;;24.70;;
26335;SDS011;14047;50.936;4.654;2023-05-10T05:21:45;58.47;;;23.85;;
26335;SDS011;14047;50.936;4.654;2023-05-10T05:24:11;63.58;;;24.13;;
26335;SDS011;14047;50.936;4.654;2023-05-10T05:26:38;58.40;;;23.98;;
26335;SDS011;14047;50.936;4.654;2023-05-10T05:29:04;62.28;;;22.52;;
26335;SDS011;14047;50.936;4.654;2023-05-10T05:31:30;58.80;;;24.15;;
26335;SDS011;14047;50.936;4.654;2023-05-10T05:33:55;56.80;;;22.25;;
26335;SDS011;14047;50.936;4.654;2023-05-10T05:36:21;59.47;;;24.58;;
26335;SDS011;14047;50.936;4.654;2023-05-10T05:38:47;54.72;;;22.55;;
26335;SDS011;14047;50.936;4.654;2023-05-10T05:41:13;59.10;;;23.42;;
26335;SDS011;14047;50.936;4.654;2023-05-10T05:43:39;55.97;;;23.20;;
26335;SDS011;14047;50.936;4.654;2023-05-10T05:46:05;56.17;;;21.80;;
26335;SDS011;14047;50.936;4.654;2023-05-10T05:48:31;50.70;;;23.38;;
26335;SDS011;14047;50.936;4.654;2023-05-10T05:50:57;48.25;;;23.05;;
26335;SDS011;14047;50.936;4.654;2023-05-10T05:53:23;55.78;;;23.70;;
26335;SDS011;14047;50.936;4.654;2023-05-10T05:55:56;48.10;;;22.95;;
26335;SDS011;14047;50.936;4.654;2023-05-10T05:58:23;58.30;;;23.05;;
26335;SDS011;14047;50.936;4.654;2023-05-10T06:00:50;47.88;;;22.60;;
26335;SDS011;14047;50.936;4.654;2023-05-10T06:03:20;46.55;;;21.73;;
26335;SDS011;14047;50.936;4.654;2023-05-10T06:05:46;48.22;;;21.08;;
26335;SDS011;14047;50.936;4.654;2023-05-10T06:08:12;52.13;;;21.75;;
26335;SDS011;14047;50.936;4.654;2023-05-10T06:10:38;46.20;;;22.45;;
26335;SDS011;14047;50.936;4.654;2023-05-10T06:13:04;48.35;;;22.83;;
26335;SDS011;14047;50.936;4.654;2023-05-10T06:15:30;46.03;;;22.13;;
26335;SDS011;14047;50.936;4.654;2023-05-10T06:17:55;41.53;;;20.88;;
26335;SDS011;14047;50.936;4.654;2023-05-10T06:20:21;69.60;;;23.60;;
26335;SDS011;14047;50.936;4.654;2023-05-10T06:22:47;42.63;;;21.48;;
26335;SDS011;14047;50.936;4.654;2023-05-10T06:25:13;40.63;;;20.67;;
26335;SDS011;14047;50.936;4.654;2023-05-10T06:27:39;49.30;;;22.05;;
26335;SDS011;14047;50.936;4.654;2023-05-10T06:30:05;43.70;;;20.67;;
26335;SDS011;14047;50.936;4.654;2023-05-10T06:32:33;44.75;;;20.33;;
26335;SDS011;14047;50.936;4.654;2023-05-10T06:34:59;43.20;;;20.73;;
26335;SDS011;14047;50.936;4.654;2023-05-10T06:37:25;39.40;;;20.45;;
26335;SDS011;14047;50.936;4.654;2023-05-10T06:39:51;41.67;;;19.75;;
26335;SDS011;14047;50.936;4.654;2023-05-10T06:42:17;42.67;;;20.90;;
26335;SDS011;14047;50.936;4.654;2023-05-10T06:44:45;49.60;;;21.80;;
26335;SDS011;14047;50.936;4.654;2023-05-10T06:47:11;42.55;;;20.23;;
26335;SDS011;14047;50.936;4.654;2023-05-10T06:49:37;39.75;;;20.02;;
26335;SDS011;14047;50.936;4.654;2023-05-10T06:52:03;49.70;;;20.80;;
26335;SDS011;14047;50.936;4.654;2023-05-10T06:54:29;37.67;;;20.88;;
26335;SDS011;14047;50.936;4.654;2023-05-10T06:56:55;38.35;;;18.63;;
26335;SDS011;14047;50.936;4.654;2023-05-10T06:59:21;37.78;;;18.90;;
26335;SDS011;14047;50.936;4.654;2023-05-10T07:01:47;34.75;;;18.70;;
26335;SDS011;14047;50.936;4.654;2023-05-10T07:04:13;36.67;;;20.23;;
26335;SDS011;14047;50.936;4.654;2023-05-10T07:06:39;37.15;;;18.88;;
26335;SDS011;14047;50.936;4.654;2023-05-10T07:09:05;33.65;;;17.95;;
26335;SDS011;14047;50.936;4.654;2023-05-10T07:11:31;31.13;;;17.35;;
26335;SDS011;14047;50.936;4.654;2023-05-10T07:13:57;31.45;;;17.83;;
26335;SDS011;14047;50.936;4.654;2023-05-10T07:16:23;32.92;;;17.52;;
26335;SDS011;14047;50.936;4.654;2023-05-10T07:18:51;29.88;;;17.00;;
26335;SDS011;14047;50.936;4.654;2023-05-10T07:21:18;29.30;;;14.80;;
26335;SDS011;14047;50.936;4.654;2023-05-10T07:23:44;27.15;;;13.45;;
26335;SDS011;14047;50.936;4.654;2023-05-10T07:26:10;28.38;;;13.88;;
26335;SDS011;14047;50.936;4.654;2023-05-10T07:28:36;28.52;;;14.52;;
26335;SDS011;14047;50.936;4.654;2023-05-10T07:31:04;22.13;;;12.50;;
26335;SDS011;14047;50.936;4.654;2023-05-10T07:33:30;21.95;;;10.80;;
26335;SDS011;14047;50.936;4.654;2023-05-10T07:35:56;19.58;;;9.80;;
26335;SDS011;14047;50.936;4.654;2023-05-10T07:38:22;13.10;;;7.63;;
26335;SDS011;14047;50.936;4.654;2023-05-10T07:40:48;16.77;;;8.23;;
26335;SDS011;14047;50.936;4.654;2023-05-10T07:43:14;15.80;;;8.32;;
26335;SDS011;14047;50.936;4.654;2023-05-10T07:45:40;15.57;;;6.88;;
26335;SDS011;14047;50.936;4.654;2023-05-10T07:48:06;12.25;;;7.63;;
26335;SDS011;14047;50.936;4.654;2023-05-10T07:50:32;16.75;;;8.15;;
26335;SDS011;14047;50.936;4.654;2023-05-10T07:52:58;14.55;;;7.88;;
26335;SDS011;14047;50.936;4.654;2023-05-10T07:55:24;17.95;;;9.25;;
26335;SDS011;14047;50.936;4.654;2023-05-10T07:57:50;13.60;;;8.18;;
26335;SDS011;14047;50.936;4.654;2023-05-10T08:00:17;21.67;;;8.95;;
26335;SDS011;14047;50.936;4.654;2023-05-10T08:02:44;19.02;;;9.82;;
26335;SDS011;14047;50.936;4.654;2023-05-10T08:05:10;21.27;;;10.50;;
26335;SDS011;14047;50.936;4.654;2023-05-10T08:07:36;17.48;;;9.48;;
26335;SDS011;14047;50.936;4.654;2023-05-10T08:10:02;20.90;;;10.00;;
26335;SDS011;14047;50.936;4.654;2023-05-10T08:12:29;20.92;;;10.23;;
26335;SDS011;14047;50.936;4.654;2023-05-10T08:14:55;17.50;;;10.10;;
26335;SDS011;14047;50.936;4.654;2023-05-10T08:17:21;16.27;;;9.75;;
26335;SDS011;14047;50.936;4.654;2023-05-10T08:19:47;20.52;;;10.13;;
26335;SDS011;14047;50.936;4.654;2023-05-10T08:22:13;22.23;;;10.05;;
26335;SDS011;14047;50.936;4.654;2023-05-10T08:24:39;18.83;;;9.60;;
26335;SDS011;14047;50.936;4.654;2023-05-10T08:27:07;24.35;;;10.77;;
26335;SDS011;14047;50.936;4.654;2023-05-10T08:29:34;18.63;;;9.77;;
26335;SDS011;14047;50.936;4.654;2023-05-10T08:32:00;21.77;;;9.93;;
26335;SDS011;14047;50.936;4.654;2023-05-10T08:34:26;17.42;;;10.63;;
26335;SDS011;14047;50.936;4.654;2023-05-10T08:36:52;17.33;;;9.38;;
26335;SDS011;14047;50.936;4.654;2023-05-10T08:39:18;15.85;;;9.20;;
26335;SDS011;14047;50.936;4.654;2023-05-10T08:41:44;16.02;;;8.60;;
26335;SDS011;14047;50.936;4.654;2023-05-10T08:44:12;16.60;;;8.95;;
26335;SDS011;14047;50.936;4.654;2023-05-10T08:46:38;17.20;;;8.48;;
26335;SDS011;14047;50.936;4.654;2023-05-10T08:49:09;12.43;;;7.90;;
26335;SDS011;14047;50.936;4.654;2023-05-10T08:51:40;14.63;;;8.00;;
26335;SDS011;14047;50.936;4.654;2023-05-10T08:54:09;16.85;;;7.80;;
26335;SDS011;14047;50.936;4.654;2023-05-10T08:56:35;12.57;;;7.35;;
26335;SDS011;14047;50.936;4.654;2023-05-10T08:59:01;13.68;;;8.05;;
26335;SDS011;14047;50.936;4.654;2023-05-10T09:01:28;16.75;;;9.00;;
26335;SDS011;14047;50.936;4.654;2023-05-10T09:03:56;13.68;;;8.25;;
26335;SDS011;14047;50.936;4.654;2023-05-10T09:06:23;17.13;;;8.63;;
26335;SDS011;14047;50.936;4.654;2023-05-10T09:08:49;14.18;;;7.50;;
26335;SDS011;14047;50.936;4.654;2023-05-10T09:11:20;15.00;;;7.82;;
26335;SDS011;14047;50.936;4.654;2023-05-10T09:13:48;13.45;;;7.78;;
26335;SDS011;14047;50.936;4.654;2023-05-10T09:16:17;13.80;;;7.68;;
26335;SDS011;14047;50.936;4.654;2023-05-10T09:18:43;17.42;;;7.80;;
26335;SDS011;14047;50.936;4.654;2023-05-10T09:21:09;14.23;;;7.70;;
26335;SDS011;14047;50.936;4.654;2023-05-10T09:23:36;15.30;;;7.93;;
26335;SDS011;14047;50.936;4.654;2023-05-10T09:26:02;12.50;;;7.55;;
26335;SDS011;14047;50.936;4.654;2023-05-10T09:28:33;13.65;;;7.60;;
26335;SDS011;14047;50.936;4.654;2023-05-10T09:31:15;13.10;;;7.00;;
26335;SDS011;14047;50.936;4.654;2023-05-10T09:33:44;12.27;;;6.80;;
26335;SDS011;14047;50.936;4.654;2023-05-10T09:36:13;11.95;;;7.07;;
26335;SDS011;14047;50.936;4.654;2023-05-10T09:38:47;11.60;;;6.70;;
26335;SDS011;14047;50.936;4.654;2023-05-10T09:41:17;12.07;;;6.47;;
26335;SDS011;14047;50.936;4.654;2023-05-10T09:43:45;12.13;;;6.07;;
26335;SDS011;14047;50.936;4.654;2023-05-10T09:46:11;10.18;;;5.95;;
26335;SDS011;14047;50.936;4.654;2023-05-10T09:48:41;10.68;;;6.40;;
26335;SDS011;14047;50.936;4.654;2023-05-10T09:51:09;9.77;;;5.80;;
26335;SDS011;14047;50.936;4.654;2023-05-10T09:53:35;10.65;;;6.18;;
26335;SDS011;14047;50.936;4.654;2023-05-10T09:56:01;13.60;;;5.63;;
26335;SDS011;14047;50.936;4.654;2023-05-10T09:58:27;9.85;;;5.60;;
26335;SDS011;14047;50.936;4.654;2023-05-10T10:00:53;10.20;;;5.45;;
26335;SDS011;14047;50.936;4.654;2023-05-10T10:03:20;13.70;;;6.57;;
26335;SDS011;14047;50.936;4.654;2023-05-10T10:05:47;12.32;;;6.55;;
26335;SDS011;14047;50.936;4.654;2023-05-10T10:08:14;13.48;;;5.97;;
26335;SDS011;14047;50.936;4.654;2023-05-10T10:10:40;9.68;;;5.72;;
26335;SDS011;14047;50.936;4.654;2023-05-10T10:13:07;10.60;;;6.35;;
26335;SDS011;14047;50.936;4.654;2023-05-10T10:15:34;10.27;;;5.97;;
26335;SDS011;14047;50.936;4.654;2023-05-10T10:18:00;11.38;;;6.28;;
26335;SDS011;14047;50.936;4.654;2023-05-10T10:20:26;9.25;;;5.50;;
26335;SDS011;14047;50.936;4.654;2023-05-10T10:22:53;8.77;;;5.43;;
26335;SDS011;14047;50.936;4.654;2023-05-10T10:25:19;8.60;;;5.22;;
26335;SDS011;14047;50.936;4.654;2023-05-10T10:30:23;8.60;;;5.35;;
26335;SDS011;14047;50.936;4.654;2023-05-10T10:36:04;7.00;;;4.68;;
26335;SDS011;14047;50.936;4.654;2023-05-10T10:39:05;7.45;;;4.63;;
26335;SDS011;14047;50.936;4.654;2023-05-10T10:41:30;8.40;;;4.80;;
26335;SDS011;14047;50.936;4.654;2023-05-10T10:49:27;10.40;;;4.13;;
26335;SDS011;14047;50.936;4.654;2023-05-10T10:52:13;11.18;;;4.30;;
26335;SDS011;14047;50.936;4.654;2023-05-10T10:54:50;5.38;;;3.58;;
26335;SDS011;14047;50.936;4.654;2023-05-10T10:57:17;5.90;;;3.63;;
26335;SDS011;14047;50.936;4.654;2023-05-10T10:59:44;6.93;;;3.85;;
26335;SDS011;14047;50.936;4.654;2023-05-10T11:08:06;7.97;;;3.42;;
26335;SDS011;14047;50.936;4.654;2023-05-10T11:10:53;5.60;;;3.17;;
26335;SDS011;14047;50.936;4.654;2023-05-10T11:18:39;3.80;;;2.60;;
26335;SDS011;14047;50.936;4.654;2023-05-10T11:21:06;4.05;;;2.97;;
26335;SDS011;14047;50.936;4.654;2023-05-10T11:23:55;5.25;;;3.08;;
26335;SDS011;14047;50.936;4.654;2023-05-10T11:26:29;5.40;;;3.30;;
26335;SDS011;14047;50.936;4.654;2023-05-10T11:28:56;4.32;;;3.30;;
26335;SDS011;14047;50.936;4.654;2023-05-10T11:31:24;5.68;;;3.10;;
26335;SDS011;14047;50.936;4.654;2023-05-10T11:33:53;7.38;;;3.78;;
26335;SDS011;14047;50.936;4.654;2023-05-10T11:36:21;5.65;;;3.10;;
26335;SDS011;14047;50.936;4.654;2023-05-10T11:38:49;5.00;;;3.55;;
26335;SDS011;14047;50.936;4.654;2023-05-10T11:41:15;5.60;;;3.88;;
26335;SDS011;14047;50.936;4.654;2023-05-10T11:43:43;5.78;;;4.20;;
26335;SDS011;14047;50.936;4.654;2023-05-10T11:46:12;6.15;;;3.58;;
26335;SDS011;14047;50.936;4.654;2023-05-10T11:48:39;5.63;;;3.22;;
26335;SDS011;14047;50.936;4.654;2023-05-10T11:51:08;6.50;;;3.15;;
26335;SDS011;14047;50.936;4.654;2023-05-10T11:53:36;4.78;;;3.30;;
26335;SDS011;14047;50.936;4.654;2023-05-10T11:56:06;7.43;;;3.60;;
26335;SDS011;14047;50.936;4.654;2023-05-10T11:58:34;6.13;;;3.70;;
26335;SDS011;14047;50.936;4.654;2023-05-10T12:01:01;5.20;;;3.70;;
26335;SDS011;14047;50.936;4.654;2023-05-10T12:03:28;4.38;;;3.58;;
26335;SDS011;14047;50.936;4.654;2023-05-10T12:05:55;5.85;;;4.10;;
26335;SDS011;14047;50.936;4.654;2023-05-10T12:08:23;11.23;;;4.60;;
26335;SDS011;14047;50.936;4.654;2023-05-10T12:10:50;5.78;;;3.30;;
26335;SDS011;14047;50.936;4.654;2023-05-10T12:13:17;6.30;;;3.38;;
26335;SDS011;14047;50.936;4.654;2023-05-10T12:15:45;5.30;;;3.55;;
26335;SDS011;14047;50.936;4.654;2023-05-10T12:18:12;4.35;;;3.35;;
26335;SDS011;14047;50.936;4.654;2023-05-10T12:20:39;4.55;;;2.75;;
26335;SDS011;14047;50.936;4.654;2023-05-10T12:23:08;4.07;;;2.97;;
26335;SDS011;14047;50.936;4.654;2023-05-10T12:25:35;4.15;;;3.10;;
26335;SDS011;14047;50.936;4.654;2023-05-10T12:28:03;4.03;;;2.72;;
26335;SDS011;14047;50.936;4.654;2023-05-10T12:30:30;5.32;;;3.25;;
26335;SDS011;14047;50.936;4.654;2023-05-10T12:33:15;4.00;;;2.60;;
26335;SDS011;14047;50.936;4.654;2023-05-10T12:35:47;3.80;;;2.33;;
26335;SDS011;14047;50.936;4.654;2023-05-10T12:40:59;2.85;;;2.13;;
26335;SDS011;14047;50.936;4.654;2023-05-10T12:43:26;3.45;;;2.20;;
26335;SDS011;14047;50.936;4.654;2023-05-10T12:45:52;2.60;;;2.00;;
26335;SDS011;14047;50.936;4.654;2023-05-10T12:48:18;3.63;;;2.80;;
26335;SDS011;14047;50.936;4.654;2023-05-10T12:50:44;4.85;;;2.92;;
26335;SDS011;14047;50.936;4.654;2023-05-10T12:53:10;6.22;;;3.10;;
26335;SDS011;14047;50.936;4.654;2023-05-10T12:55:36;4.57;;;2.58;;
26335;SDS011;14047;50.936;4.654;2023-05-10T12:58:02;5.45;;;2.80;;
26335;SDS011;14047;50.936;4.654;2023-05-10T13:00:28;3.85;;;2.65;;
26335;SDS011;14047;50.936;4.654;2023-05-10T13:02:54;3.83;;;3.00;;
26335;SDS011;14047;50.936;4.654;2023-05-10T13:05:20;3.72;;;2.58;;
26335;SDS011;14047;50.936;4.654;2023-05-10T13:07:46;6.30;;;3.00;;
26335;SDS011;14047;50.936;4.654;2023-05-10T13:10:11;2.95;;;2.30;;
26335;SDS011;14047;50.936;4.654;2023-05-10T13:12:37;3.38;;;2.35;;
26335;SDS011;14047;50.936;4.654;2023-05-10T13:15:03;7.60;;;2.72;;
26335;SDS011;14047;50.936;4.654;2023-05-10T13:17:30;6.38;;;2.75;;
26335;SDS011;14047;50.936;4.654;2023-05-10T13:19:56;7.43;;;2.88;;
26335;SDS011;14047;50.936;4.654;2023-05-10T13:22:21;2.90;;;2.38;;
26335;SDS011;14047;50.936;4.654;2023-05-10T13:24:47;3.78;;;2.88;;
26335;SDS011;14047;50.936;4.654;2023-05-10T13:27:13;3.75;;;2.45;;
26335;SDS011;14047;50.936;4.654;2023-05-10T13:29:39;3.97;;;2.90;;
26335;SDS011;14047;50.936;4.654;2023-05-10T13:32:05;4.45;;;3.08;;
26335;SDS011;14047;50.936;4.654;2023-05-10T13:34:31;6.07;;;3.17;;
26335;SDS011;14047;50.936;4.654;2023-05-10T13:36:57;5.85;;;4.10;;
26335;SDS011;14047;50.936;4.654;2023-05-10T13:39:23;5.18;;;3.20;;
26335;SDS011;14047;50.936;4.654;2023-05-10T13:41:49;4.93;;;2.80;;
26335;SDS011;14047;50.936;4.654;2023-05-10T13:44:15;3.72;;;2.80;;
26335;SDS011;14047;50.936;4.654;2023-05-10T13:46:41;3.58;;;2.75;;
26335;SDS011;14047;50.936;4.654;2023-05-10T13:49:10;3.90;;;2.30;;
26335;SDS011;14047;50.936;4.654;2023-05-10T13:51:36;4.70;;;2.95;;
26335;SDS011;14047;50.936;4.654;2023-05-10T13:54:02;7.07;;;2.90;;
26335;SDS011;14047;50.936;4.654;2023-05-10T13:56:28;5.35;;;3.50;;
26335;SDS011;14047;50.936;4.654;2023-05-10T13:58:55;4.65;;;2.38;;
26335;SDS011;14047;50.936;4.654;2023-05-10T14:01:22;3.33;;;2.55;;
26335;SDS011;14047;50.936;4.654;2023-05-10T14:03:50;5.35;;;2.47;;
26335;SDS011;14047;50.936;4.654;2023-05-10T14:06:16;4.30;;;3.00;;
26335;SDS011;14047;50.936;4.654;2023-05-10T14:08:42;7.72;;;3.33;;
26335;SDS011;14047;50.936;4.654;2023-05-10T14:11:08;5.68;;;3.00;;
26335;SDS011;14047;50.936;4.654;2023-05-10T14:13:34;6.13;;;3.35;;
26335;SDS011;14047;50.936;4.654;2023-05-10T14:16:00;8.85;;;3.40;;
26335;SDS011;14047;50.936;4.654;2023-05-10T14:18:27;5.15;;;3.55;;
26335;SDS011;14047;50.936;4.654;2023-05-10T14:20:53;8.07;;;3.65;;
26335;SDS011;14047;50.936;4.654;2023-05-10T14:23:21;7.75;;;3.20;;
26335;SDS011;14047;50.936;4.654;2023-05-10T14:25:51;5.22;;;3.67;;
26335;SDS011;14047;50.936;4.654;2023-05-10T14:28:17;8.02;;;4.18;;
26335;SDS011;14047;50.936;4.654;2023-05-10T14:30:44;6.55;;;3.53;;
26335;SDS011;14047;50.936;4.654;2023-05-10T14:33:10;5.45;;;3.75;;
26335;SDS011;14047;50.936;4.654;2023-05-10T14:35:36;6.40;;;3.60;;
26335;SDS011;14047;50.936;4.654;2023-05-10T14:38:02;5.65;;;3.40;;
26335;SDS011;14047;50.936;4.654;2023-05-10T14:40:29;6.47;;;3.20;;
26335;SDS011;14047;50.936;4.654;2023-05-10T14:42:55;5.10;;;2.90;;
26335;SDS011;14047;50.936;4.654;2023-05-10T14:45:21;3.60;;;2.97;;
26335;SDS011;14047;50.936;4.654;2023-05-10T14:47:48;6.78;;;2.80;;
26335;SDS011;14047;50.936;4.654;2023-05-10T14:50:15;5.28;;;3.22;;
26335;SDS011;14047;50.936;4.654;2023-05-10T14:52:42;7.95;;;4.20;;
26335;SDS011;14047;50.936;4.654;2023-05-10T14:55:08;7.47;;;4.82;;
26335;SDS011;14047;50.936;4.654;2023-05-10T14:57:34;10.27;;;4.88;;
26335;SDS011;14047;50.936;4.654;2023-05-10T15:00:00;11.18;;;5.38;;
26335;SDS011;14047;50.936;4.654;2023-05-10T15:02:26;11.05;;;5.32;;
26335;SDS011;14047;50.936;4.654;2023-05-10T15:04:52;7.97;;;5.53;;
26335;SDS011;14047;50.936;4.654;2023-05-10T15:07:18;12.80;;;6.38;;
26335;SDS011;14047;50.936;4.654;2023-05-10T15:09:44;8.98;;;6.25;;
26335;SDS011;14047;50.936;4.654;2023-05-10T15:12:10;12.27;;;7.85;;
26335;SDS011;14047;50.936;4.654;2023-05-10T15:14:36;12.02;;;7.95;;
26335;SDS011;14047;50.936;4.654;2023-05-10T15:17:02;14.90;;;9.00;;
26335;SDS011;14047;50.936;4.654;2023-05-10T15:19:31;14.73;;;9.05;;